createdAt,value
2022-10-17T00:00:40.480Z,12.08
2022-10-17T00:06:09.834Z,11.85
2022-10-17T00:11:20.108Z,12.03
2022-10-17T00:16:29.841Z,12.13
2022-10-17T00:21:36.307Z,12.13
2022-10-17T00:26:42.352Z,12.09
2022-10-17T00:31:50.236Z,12.08
2022-10-17T00:36:56.704Z,11.76
2022-10-17T00:42:04.191Z,11.72
2022-10-17T00:47:14.918Z,11.88
2022-10-17T00:52:25.945Z,11.96
2022-10-17T00:57:34.678Z,12.02
2022-10-17T01:02:42.674Z,11.75
2022-10-17T01:07:50.909Z,11.74
2022-10-17T01:13:13.031Z,11.89
2022-10-17T01:18:43.900Z,11.62
2022-10-17T01:24:05.407Z,11.77
2022-10-17T01:29:39.349Z,11.83
2022-10-17T01:34:56.964Z,11.82
2022-10-17T01:40:11.067Z,11.78
2022-10-17T01:45:26.749Z,11.82
2022-10-17T01:50:40.666Z,11.83
2022-10-17T01:55:50.742Z,11.80
2022-10-17T02:01:01.675Z,11.80
2022-10-17T02:06:12.319Z,11.79
2022-10-17T02:11:21.875Z,11.73
2022-10-17T02:16:39.930Z,11.70
2022-10-17T02:21:55.003Z,11.34
2022-10-17T02:27:08.305Z,11.43
2022-10-17T02:37:32.782Z,11.39
2022-10-17T02:42:40.783Z,11.49
2022-10-17T02:47:56.404Z,11.47
2022-10-17T02:53:10.209Z,11.41
2022-10-17T02:58:22.346Z,11.42
2022-10-17T03:03:30.647Z,11.45
2022-10-17T03:08:41.676Z,11.32
2022-10-17T03:13:47.669Z,11.30
2022-10-17T03:18:55.912Z,11.39
2022-10-17T03:24:03.344Z,11.47
2022-10-17T03:29:09.464Z,11.50
2022-10-17T03:34:17.005Z,11.49
2022-10-17T03:39:25.312Z,11.43
2022-10-17T03:44:33.318Z,11.41
2022-10-17T03:49:39.264Z,11.39
2022-10-17T03:54:46.775Z,11.43
2022-10-17T03:59:52.976Z,11.36
2022-10-17T04:04:59.915Z,11.07
2022-10-17T04:10:09.143Z,11.23
2022-10-17T04:15:15.254Z,11.30
2022-10-17T04:20:21.334Z,11.37
2022-10-17T04:25:32.272Z,11.32
2022-10-17T04:30:43.593Z,11.16
2022-10-17T04:35:59.211Z,11.19
2022-10-17T04:41:09.858Z,11.23
2022-10-17T04:46:17.515Z,11.19
2022-10-17T04:51:26.785Z,11.16
2022-10-17T04:56:57.099Z,11.21
2022-10-17T05:02:03.317Z,11.26
2022-10-17T05:07:10.180Z,11.27
2022-10-17T05:12:32.340Z,11.27
2022-10-17T05:17:39.556Z,11.29
2022-10-17T05:22:47.213Z,11.26
2022-10-17T05:27:54.938Z,11.03
2022-10-17T05:33:01.445Z,11.09
2022-10-17T05:38:08.601Z,11.06
2022-10-17T05:43:17.531Z,11.17
2022-10-17T05:48:26.223Z,11.24
2022-10-17T05:53:35.182Z,11.30
2022-10-17T05:58:50.992Z,11.33
2022-10-17T06:04:29.083Z,11.37
2022-10-17T06:09:35.510Z,11.39
2022-10-17T06:14:43.001Z,11.42
2022-10-17T06:19:51.209Z,11.45
2022-10-17T06:24:57.400Z,11.47
2022-10-17T06:30:05.484Z,11.49
2022-10-17T06:35:11.853Z,11.51
2022-10-17T06:40:19.805Z,11.54
2022-10-17T06:45:27.561Z,11.56
2022-10-17T06:51:10.102Z,11.65
2022-10-17T06:56:26.257Z,11.75
2022-10-17T07:01:54.199Z,11.84
2022-10-17T07:07:03.912Z,11.92
2022-10-17T07:12:13.177Z,12.00
2022-10-17T07:17:25.104Z,12.15
2022-10-17T07:22:32.348Z,12.20
2022-10-17T07:27:39.019Z,12.32
2022-10-17T07:32:46.928Z,12.44
2022-10-17T07:37:53.323Z,12.50
2022-10-17T07:43:03.049Z,12.59
2022-10-17T07:48:11.617Z,12.66
2022-10-17T07:53:18.301Z,12.82
2022-10-17T07:58:24.446Z,12.89
2022-10-17T08:03:31.958Z,12.96
2022-10-17T08:08:37.966Z,12.96
2022-10-17T08:13:44.356Z,13.06
2022-10-17T08:18:51.882Z,13.21
2022-10-17T08:23:58.239Z,13.26
2022-10-17T08:29:04.314Z,13.36
2022-10-17T08:34:11.946Z,13.37
2022-10-17T08:39:19.221Z,13.54
2022-10-17T08:44:43.833Z,13.63
2022-10-17T08:49:54.604Z,13.67
2022-10-17T08:55:01.094Z,13.82
2022-10-17T09:00:20.050Z,13.90
2022-10-17T09:05:42.007Z,14.06
2022-10-17T09:10:58.361Z,14.29
2022-10-17T09:16:41.181Z,14.37
2022-10-17T09:21:53.557Z,14.43
2022-10-17T09:27:01.139Z,14.46
2022-10-17T09:32:16.883Z,14.65
2022-10-17T09:37:33.114Z,14.64
2022-10-17T09:42:39.503Z,14.83
2022-10-17T09:47:57.535Z,15.07
2022-10-17T09:53:15.378Z,15.18
2022-10-17T09:58:23.234Z,15.22
2022-10-17T10:03:32.261Z,15.47
2022-10-17T10:08:52.234Z,15.58
2022-10-17T10:14:12.865Z,15.71
2022-10-17T10:19:30.555Z,15.90
2022-10-17T10:24:38.893Z,16.07
2022-10-17T10:29:51.057Z,16.18
2022-10-17T10:35:00.938Z,16.29
2022-10-17T10:40:19.341Z,16.38
2022-10-17T10:45:47.014Z,16.45
2022-10-17T10:50:59.599Z,16.50
2022-10-17T10:56:15.672Z,16.47
2022-10-17T11:01:29.328Z,16.64
2022-10-17T11:06:39.652Z,16.83
2022-10-17T11:11:51.555Z,16.84
2022-10-17T11:17:07.299Z,16.87
2022-10-17T11:22:22.923Z,16.92
2022-10-17T11:27:35.424Z,16.99
2022-10-17T11:32:46.503Z,17.13
2022-10-17T11:38:02.052Z,17.26
2022-10-17T11:43:18.106Z,17.29
2022-10-17T11:48:28.120Z,17.44
2022-10-17T11:53:48.454Z,17.53
2022-10-17T11:59:09.878Z,17.56
2022-10-17T12:04:36.040Z,17.64
2022-10-17T12:09:48.534Z,17.72
2022-10-17T12:14:56.396Z,17.69
2022-10-17T12:20:41.643Z,17.81
2022-10-17T12:25:55.900Z,17.84
2022-10-17T12:31:10.336Z,17.79
2022-10-17T12:36:40.748Z,17.84
2022-10-17T12:41:56.556Z,17.81
2022-10-17T12:47:39.718Z,17.84
2022-10-17T12:53:08.515Z,17.85
2022-10-17T12:58:18.045Z,17.86
2022-10-17T13:03:28.851Z,17.79
2022-10-17T13:08:40.984Z,17.78
2022-10-17T13:13:50.165Z,17.78
2022-10-17T13:18:58.235Z,17.81
2022-10-17T13:24:21.010Z,17.81
2022-10-17T13:29:28.995Z,17.87
2022-10-17T13:34:36.677Z,17.85
2022-10-17T13:39:56.042Z,17.79
2022-10-17T13:45:05.186Z,17.81
2022-10-17T13:50:43.562Z,17.78
2022-10-17T13:56:26.363Z,17.77
2022-10-17T14:01:31.818Z,17.74
2022-10-17T14:06:48.001Z,17.66
2022-10-17T14:12:08.859Z,17.61
2022-10-17T14:17:24.213Z,17.60
2022-10-17T14:22:36.263Z,17.59
2022-10-17T14:28:02.704Z,17.57
2022-10-17T14:33:15.339Z,17.55
2022-10-17T14:38:24.293Z,17.53
2022-10-17T14:43:33.710Z,17.49
2022-10-17T14:48:39.795Z,17.43
2022-10-17T14:54:05.465Z,17.35
2022-10-17T14:59:15.651Z,17.26
2022-10-17T15:04:27.554Z,17.17
2022-10-17T15:09:35.381Z,17.07
2022-10-17T15:14:41.560Z,16.94
2022-10-17T15:19:47.969Z,16.81
2022-10-17T15:24:55.497Z,16.70
2022-10-17T15:30:01.582Z,16.58
2022-10-17T15:35:11.183Z,16.45
2022-10-17T15:40:22.429Z,16.38
2022-10-17T15:45:29.254Z,16.31
2022-10-17T15:50:35.905Z,16.23
2022-10-17T15:55:43.469Z,16.04
2022-10-17T16:00:50.427Z,15.95
2022-10-17T16:05:56.637Z,15.85
2022-10-17T16:11:04.285Z,15.72
2022-10-17T16:16:13.171Z,15.59
2022-10-17T16:21:21.135Z,15.50
2022-10-17T16:26:29.340Z,15.37
2022-10-17T16:31:38.123Z,15.30
2022-10-17T16:36:44.554Z,15.27
2022-10-17T16:41:54.800Z,15.21
2022-10-17T16:47:03.962Z,15.06
2022-10-17T16:52:10.310Z,14.97
2022-10-17T16:57:17.870Z,14.95
2022-10-17T17:02:24.073Z,14.86
2022-10-17T17:07:31.093Z,14.83
2022-10-17T17:12:39.446Z,14.79
2022-10-17T17:17:50.513Z,14.73
2022-10-17T17:22:58.657Z,14.67
2022-10-17T17:28:07.397Z,14.58
2022-10-17T17:33:15.191Z,14.52
2022-10-17T17:38:21.652Z,14.44
2022-10-17T17:43:30.107Z,14.38
2022-10-17T17:48:40.034Z,14.34
2022-10-17T17:53:47.726Z,14.23
2022-10-17T17:59:00.526Z,14.14
2022-10-17T18:04:10.140Z,14.09
2022-10-17T18:09:16.607Z,14.01
2022-10-17T18:14:26.337Z,13.96
2022-10-17T18:19:34.016Z,13.92
2022-10-17T18:24:42.149Z,13.89
2022-10-17T18:29:50.760Z,13.88
2022-10-17T18:34:57.820Z,13.92
2022-10-17T18:40:04.545Z,13.92
2022-10-17T18:45:13.913Z,13.93
2022-10-17T18:50:21.006Z,13.93
2022-10-17T18:55:28.064Z,13.92
2022-10-17T19:00:36.393Z,13.87
2022-10-17T19:05:45.512Z,13.83
2022-10-17T19:10:51.807Z,13.77
2022-10-17T19:15:59.417Z,13.72
2022-10-17T19:21:07.851Z,13.69
2022-10-17T19:26:15.350Z,13.62
2022-10-17T19:31:26.790Z,13.54
2022-10-17T19:36:37.055Z,13.56
2022-10-17T19:41:44.216Z,13.57
2022-10-17T19:46:52.303Z,13.51
2022-10-17T19:51:58.542Z,13.47
2022-10-17T19:57:09.486Z,13.41
2022-10-17T20:02:18.240Z,13.30
2022-10-17T20:07:24.670Z,13.28
2022-10-17T20:12:31.511Z,13.17
2022-10-17T20:17:39.823Z,13.09
2022-10-17T20:22:46.020Z,12.96
2022-10-17T20:27:52.229Z,12.92
2022-10-17T20:33:00.161Z,12.88
2022-10-17T20:38:06.492Z,12.91
2022-10-17T20:43:14.525Z,12.97
2022-10-17T20:48:23.637Z,12.91
2022-10-17T20:53:37.032Z,12.79
2022-10-17T20:58:43.672Z,12.54
2022-10-17T21:03:52.689Z,12.36
2022-10-17T21:08:59.188Z,12.40
2022-10-17T21:14:08.240Z,12.41
2022-10-17T21:19:17.674Z,12.46
2022-10-17T21:24:23.561Z,12.48
2022-10-17T21:29:29.666Z,12.49
2022-10-17T21:34:37.399Z,12.49
2022-10-17T21:39:43.751Z,12.43
2022-10-17T21:44:50.294Z,12.41
2022-10-17T21:49:57.872Z,12.39
2022-10-17T21:55:03.725Z,12.32
2022-10-17T22:00:12.384Z,12.30
2022-10-17T22:05:19.833Z,12.29
2022-10-17T22:10:25.830Z,12.25
2022-10-17T22:15:32.555Z,12.24
2022-10-17T22:20:40.115Z,12.21
2022-10-17T22:25:53.873Z,12.17
2022-10-17T22:31:00.310Z,12.16
2022-10-17T22:36:09.218Z,12.06
2022-10-17T22:41:15.975Z,11.99
2022-10-17T22:46:21.791Z,12.02
2022-10-17T22:51:29.421Z,12.03
2022-10-17T22:56:36.002Z,12.05
2022-10-17T23:01:42.229Z,12.04
2022-10-17T23:06:49.563Z,12.03
2022-10-17T23:11:55.516Z,11.96
2022-10-17T23:17:01.653Z,11.93
2022-10-17T23:22:09.962Z,11.89
2022-10-17T23:27:18.326Z,11.85
2022-10-17T23:32:24.290Z,11.77
2022-10-17T23:37:32.215Z,11.78
2022-10-17T23:42:38.688Z,11.72
2022-10-17T23:47:44.773Z,11.66
2022-10-17T23:52:52.013Z,11.64
2022-10-17T23:57:57.782Z,11.60
